createdAt,value
2022-08-28T00:00:16.938Z,8
2022-08-28T00:02:00.636Z,8
2022-08-28T00:03:44.332Z,9
2022-08-28T00:05:28.039Z,8
2022-08-28T00:07:11.750Z,8
2022-08-28T00:08:55.434Z,8
2022-08-28T00:10:39.142Z,8
2022-08-28T00:12:22.845Z,9
2022-08-28T00:14:06.543Z,8
2022-08-28T00:15:50.244Z,9
2022-08-28T00:17:33.954Z,8
2022-08-28T00:19:17.650Z,8
2022-08-28T00:21:01.356Z,8
2022-08-28T00:22:45.049Z,8
2022-08-28T00:24:28.754Z,8
2022-08-28T00:26:12.456Z,7
2022-08-28T00:27:56.154Z,8
2022-08-28T00:29:39.861Z,7
2022-08-28T00:31:23.559Z,9
2022-08-28T00:33:07.287Z,1
2022-08-28T00:34:50.954Z,1
2022-08-28T00:36:34.665Z,1
2022-08-28T00:38:18.366Z,1
2022-08-28T00:40:02.070Z,1
2022-08-28T00:41:45.764Z,1
2022-08-28T00:43:29.469Z,1
2022-08-28T00:45:13.169Z,1
2022-08-28T00:46:56.869Z,1
2022-08-28T00:48:40.570Z,1
2022-08-28T00:50:24.277Z,1
2022-08-28T00:52:07.974Z,1
2022-08-28T00:53:51.680Z,1
2022-08-28T00:55:35.377Z,0
2022-08-28T00:57:19.072Z,1
2022-08-28T00:59:02.773Z,1
2022-08-28T01:00:46.479Z,1
2022-08-28T01:02:30.189Z,1
2022-08-28T01:04:13.887Z,1
2022-08-28T01:05:57.587Z,0
2022-08-28T01:07:41.287Z,1
2022-08-28T01:09:25.006Z,1
2022-08-28T01:11:08.685Z,1
2022-08-28T01:12:52.387Z,1
2022-08-28T01:14:36.088Z,1
2022-08-28T01:16:19.786Z,0
2022-08-28T01:18:03.499Z,1
2022-08-28T01:19:47.194Z,0
2022-08-28T01:21:30.892Z,1
2022-08-28T01:23:14.609Z,1
2022-08-28T01:24:58.291Z,1
2022-08-28T01:26:42.003Z,1
2022-08-28T01:28:25.705Z,0
2022-08-28T01:30:09.389Z,1
2022-08-28T01:31:53.098Z,1
2022-08-28T01:33:36.813Z,1
2022-08-28T01:35:20.502Z,0
2022-08-28T01:37:04.212Z,0
2022-08-28T01:38:47.916Z,0
2022-08-28T01:40:31.611Z,0
2022-08-28T01:42:15.311Z,0
2022-08-28T01:43:59.006Z,1
2022-08-28T01:45:42.716Z,1
2022-08-28T01:47:26.419Z,0
2022-08-28T01:49:10.117Z,1
2022-08-28T01:50:53.816Z,0
2022-08-28T01:52:37.522Z,1
2022-08-28T01:54:21.224Z,1
2022-08-28T01:56:04.924Z,1
2022-08-28T01:57:48.630Z,1
2022-08-28T01:59:32.335Z,0
2022-08-28T02:01:16.041Z,1
2022-08-28T02:02:59.733Z,1
2022-08-28T02:04:43.436Z,1
2022-08-28T02:06:27.136Z,0
2022-08-28T02:08:10.530Z,0
2022-08-28T02:09:54.233Z,0
2022-08-28T02:11:37.932Z,1
2022-08-28T02:13:21.629Z,1
2022-08-28T02:15:05.329Z,1
2022-08-28T02:16:49.041Z,1
2022-08-28T02:18:32.742Z,1
2022-08-28T02:20:16.459Z,1
2022-08-28T02:22:00.139Z,1
2022-08-28T02:23:43.852Z,1
2022-08-28T02:25:27.545Z,0
2022-08-28T02:27:11.242Z,1
2022-08-28T02:28:54.944Z,1
2022-08-28T02:30:38.654Z,0
2022-08-28T02:32:22.346Z,1
2022-08-28T02:34:06.050Z,1
2022-08-28T02:35:49.760Z,1
2022-08-28T02:37:33.450Z,0
2022-08-28T02:39:17.154Z,0
2022-08-28T02:41:00.855Z,0
2022-08-28T02:42:44.561Z,1
2022-08-28T02:44:28.262Z,1
2022-08-28T02:46:11.963Z,1
2022-08-28T02:47:55.686Z,1
2022-08-28T02:49:39.369Z,1
2022-08-28T02:51:23.067Z,0
2022-08-28T02:53:06.768Z,1
2022-08-28T02:54:50.474Z,1
2022-08-28T02:56:34.169Z,1
2022-08-28T02:58:17.870Z,2
2022-08-28T03:00:01.577Z,1
2022-08-28T03:01:45.276Z,1
2022-08-28T03:03:28.991Z,1
2022-08-28T03:05:12.693Z,1
2022-08-28T03:06:56.382Z,1
2022-08-28T03:08:40.086Z,1
2022-08-28T03:10:23.782Z,0
2022-08-28T03:12:07.491Z,1
2022-08-28T03:13:51.191Z,1
2022-08-28T03:15:34.895Z,1
2022-08-28T03:17:18.603Z,1
2022-08-28T03:19:02.296Z,1
2022-08-28T03:20:46.000Z,1
2022-08-28T03:22:29.708Z,1
2022-08-28T03:24:13.401Z,2
2022-08-28T03:25:57.107Z,1
2022-08-28T03:27:40.809Z,1
2022-08-28T03:29:24.516Z,1
2022-08-28T03:31:08.209Z,1
2022-08-28T03:32:51.906Z,2
2022-08-28T03:34:35.610Z,0
2022-08-28T03:36:19.313Z,1
2022-08-28T03:38:03.013Z,1
2022-08-28T03:39:46.718Z,1
2022-08-28T03:41:30.421Z,1
2022-08-28T03:43:14.139Z,1
2022-08-28T03:44:57.822Z,1
2022-08-28T03:46:41.519Z,1
2022-08-28T03:48:25.226Z,0
2022-08-28T03:50:08.932Z,1
2022-08-28T03:51:52.622Z,1
2022-08-28T03:53:36.327Z,1
2022-08-28T03:55:20.029Z,1
2022-08-28T03:57:03.728Z,1
2022-08-28T03:58:47.431Z,1
2022-08-28T04:00:31.135Z,1
2022-08-28T04:02:14.827Z,1
2022-08-28T04:03:58.532Z,1
2022-08-28T04:05:42.237Z,1
2022-08-28T04:07:25.937Z,0
2022-08-28T04:09:09.647Z,1
2022-08-28T04:10:53.345Z,0
2022-08-28T04:12:37.060Z,1
2022-08-28T04:14:20.748Z,1
2022-08-28T04:16:04.446Z,1
2022-08-28T04:17:48.143Z,2
2022-08-28T04:19:31.847Z,1
2022-08-28T04:21:15.549Z,2
2022-08-28T04:22:59.251Z,2
2022-08-28T04:24:42.949Z,3
2022-08-28T04:26:26.657Z,3
2022-08-28T04:28:10.357Z,3
2022-08-28T04:29:54.049Z,4
2022-08-28T04:31:37.755Z,4
2022-08-28T04:33:21.462Z,5
2022-08-28T04:35:05.153Z,5
2022-08-28T04:36:48.864Z,7
2022-08-28T04:38:32.563Z,7
2022-08-28T04:40:16.261Z,8
2022-08-28T04:41:59.967Z,8
2022-08-28T04:43:43.665Z,9
2022-08-28T04:45:27.369Z,10
2022-08-28T04:47:11.069Z,11
2022-08-28T04:48:54.772Z,12
2022-08-28T04:50:38.477Z,13
2022-08-28T04:52:22.178Z,14
2022-08-28T04:55:49.585Z,19
2022-08-28T04:57:33.284Z,21
2022-08-28T04:59:16.983Z,24
2022-08-28T05:01:00.702Z,31
2022-08-28T05:02:44.391Z,40
2022-08-28T05:04:28.083Z,48
2022-08-28T05:06:11.789Z,53
2022-08-28T05:07:55.490Z,56
2022-08-28T05:09:39.196Z,56
2022-08-28T05:11:22.897Z,59
2022-08-28T05:13:06.595Z,66
2022-08-28T05:14:50.296Z,74
2022-08-28T05:16:33.996Z,77
2022-08-28T05:18:17.695Z,75
2022-08-28T05:20:01.408Z,73
2022-08-28T05:21:45.108Z,68
2022-08-28T05:23:28.806Z,63
2022-08-28T05:25:12.504Z,62
2022-08-28T05:26:56.221Z,64
2022-08-28T05:28:39.906Z,68
2022-08-28T05:30:23.610Z,71
2022-08-28T05:32:07.316Z,77
2022-08-28T05:33:51.017Z,79
2022-08-28T05:35:34.734Z,85
2022-08-28T05:37:18.410Z,93
2022-08-28T05:39:02.111Z,99
2022-08-28T05:40:45.819Z,103
2022-08-28T05:42:29.524Z,107
2022-08-28T05:44:13.222Z,115
2022-08-28T05:45:56.930Z,125
2022-08-28T05:47:40.620Z,133
2022-08-28T05:49:24.326Z,147
2022-08-28T05:51:08.029Z,152
2022-08-28T05:52:51.734Z,149
2022-08-28T05:54:35.439Z,150
2022-08-28T05:56:19.139Z,153
2022-08-28T05:58:02.846Z,160
2022-08-28T05:59:46.554Z,181
2022-08-28T06:01:30.243Z,190
2022-08-28T06:03:13.967Z,187
2022-08-28T06:04:57.656Z,178
2022-08-28T06:06:41.346Z,181
2022-08-28T06:08:25.054Z,182
2022-08-28T06:10:08.760Z,184
2022-08-28T06:11:52.486Z,191
2022-08-28T06:13:36.166Z,201
2022-08-28T06:15:19.864Z,204
2022-08-28T06:17:03.569Z,204
2022-08-28T06:18:47.270Z,209
2022-08-28T06:20:30.971Z,216
2022-08-28T06:22:14.673Z,218
2022-08-28T06:23:58.379Z,219
2022-08-28T06:25:42.075Z,226
2022-08-28T06:27:25.777Z,241
2022-08-28T06:29:09.481Z,246
2022-08-28T06:30:53.185Z,249
2022-08-28T06:32:36.890Z,257
2022-08-28T06:34:20.585Z,265
2022-08-28T06:36:04.291Z,276
2022-08-28T06:37:47.995Z,280
2022-08-28T06:39:31.692Z,285
2022-08-28T06:41:15.395Z,292
2022-08-28T06:42:59.116Z,294
2022-08-28T06:44:42.797Z,291
2022-08-28T06:46:26.494Z,288
2022-08-28T06:48:10.203Z,297
2022-08-28T06:49:53.909Z,329
2022-08-28T06:51:37.610Z,370
2022-08-28T06:53:21.307Z,392
2022-08-28T06:55:05.012Z,399
2022-08-28T06:56:48.713Z,394
2022-08-28T06:58:32.411Z,392
2022-08-28T07:00:16.113Z,380
2022-08-28T07:01:59.826Z,376
2022-08-28T07:03:43.512Z,394
2022-08-28T07:05:27.220Z,425
2022-08-28T07:07:10.922Z,466
2022-08-28T07:08:54.627Z,521
2022-08-28T07:10:38.330Z,586
2022-08-28T07:12:22.027Z,642
2022-08-28T07:14:05.730Z,665
2022-08-28T07:15:49.452Z,647
2022-08-28T07:17:33.165Z,622
2022-08-28T07:19:16.830Z,619
2022-08-28T07:21:00.540Z,642
2022-08-28T07:22:44.233Z,685
2022-08-28T07:24:27.945Z,741
2022-08-28T07:26:11.643Z,742
2022-08-28T07:27:55.338Z,744
2022-08-28T07:29:39.044Z,743
2022-08-28T07:31:22.745Z,743
2022-08-28T07:34:50.154Z,744
2022-08-28T07:36:33.856Z,744
2022-08-28T07:38:17.553Z,743
2022-08-28T07:40:01.266Z,743
2022-08-28T07:41:44.957Z,744
2022-08-28T07:43:28.653Z,744
2022-08-28T07:45:12.357Z,744
2022-08-28T07:46:56.052Z,744
2022-08-28T07:48:39.755Z,744
2022-08-28T07:50:23.462Z,735
2022-08-28T07:52:07.164Z,746
2022-08-28T07:53:50.860Z,744
2022-08-28T07:55:34.561Z,744
2022-08-28T07:57:18.265Z,743
2022-08-28T07:59:01.969Z,743
2022-08-28T08:00:45.671Z,743
2022-08-28T08:02:29.378Z,744
2022-08-28T08:04:13.078Z,743
2022-08-28T08:05:56.772Z,743
2022-08-28T08:07:40.476Z,744
2022-08-28T08:09:24.179Z,735
2022-08-28T08:11:07.880Z,743
2022-08-28T08:12:51.582Z,744
2022-08-28T08:14:35.281Z,744
2022-08-28T08:16:18.986Z,743
2022-08-28T08:19:46.388Z,744
2022-08-28T08:21:30.093Z,744
2022-08-28T08:23:13.795Z,744
2022-08-28T08:24:57.491Z,743
2022-08-28T08:26:41.197Z,744
2022-08-28T08:28:24.903Z,742
2022-08-28T08:30:08.596Z,744
2022-08-28T08:31:52.297Z,743
2022-08-28T08:33:35.994Z,744
2022-08-28T08:35:19.704Z,744
2022-08-28T08:37:03.399Z,744
2022-08-28T08:38:47.108Z,744
2022-08-28T08:40:30.804Z,743
2022-08-28T08:42:14.504Z,744
2022-08-28T08:43:58.199Z,743
2022-08-28T08:45:41.905Z,744
2022-08-28T08:47:25.607Z,743
2022-08-28T08:49:09.311Z,744
2022-08-28T08:50:53.007Z,744
2022-08-28T08:52:36.701Z,744
2022-08-28T08:54:20.415Z,743
2022-08-28T08:56:04.112Z,743
2022-08-28T08:57:47.810Z,743
2022-08-28T08:59:31.519Z,744
2022-08-28T09:01:15.226Z,745
2022-08-28T09:02:58.912Z,744
2022-08-28T09:04:42.619Z,744
2022-08-28T09:06:26.321Z,734
2022-08-28T09:08:10.037Z,744
2022-08-28T09:09:53.726Z,743
2022-08-28T09:11:37.425Z,744
2022-08-28T09:13:21.129Z,744
2022-08-28T09:15:04.858Z,745
2022-08-28T09:16:48.522Z,744
2022-08-28T09:18:32.230Z,743
2022-08-28T09:20:15.938Z,744
2022-08-28T09:21:59.628Z,743
2022-08-28T09:23:43.331Z,743
2022-08-28T09:25:27.040Z,732
2022-08-28T09:27:10.739Z,744
2022-08-28T09:28:54.439Z,743
2022-08-28T09:30:38.139Z,743
2022-08-28T09:32:21.853Z,744
2022-08-28T09:34:05.545Z,744
2022-08-28T09:35:49.240Z,743
2022-08-28T09:37:32.943Z,743
2022-08-28T09:39:16.644Z,744
2022-08-28T09:41:00.345Z,744
2022-08-28T09:42:44.049Z,744
2022-08-28T09:44:27.746Z,742
2022-08-28T09:46:11.446Z,745
2022-08-28T09:47:55.152Z,744
2022-08-28T09:49:38.845Z,744
2022-08-28T09:51:22.551Z,744
2022-08-28T09:53:06.257Z,745
2022-08-28T09:54:49.958Z,744
2022-08-28T09:56:33.658Z,744
2022-08-28T09:58:17.354Z,735
2022-08-28T10:00:01.067Z,745
2022-08-28T10:01:44.767Z,744
2022-08-28T10:03:28.469Z,745
2022-08-28T10:05:12.155Z,745
2022-08-28T10:06:55.865Z,745
2022-08-28T10:08:39.577Z,744
2022-08-28T10:10:23.276Z,744
2022-08-28T10:12:06.974Z,744
2022-08-28T10:13:50.680Z,744
2022-08-28T10:15:34.379Z,744
2022-08-28T10:17:18.077Z,744
2022-08-28T10:19:01.778Z,745
2022-08-28T10:20:45.483Z,745
2022-08-28T10:22:29.177Z,744
2022-08-28T10:24:12.888Z,745
2022-08-28T10:25:56.585Z,744
2022-08-28T10:27:40.276Z,744
2022-08-28T10:29:23.986Z,744
2022-08-28T10:31:07.688Z,744
2022-08-28T10:32:51.381Z,745
2022-08-28T10:34:35.084Z,745
2022-08-28T10:36:18.785Z,745
2022-08-28T10:38:02.488Z,746
2022-08-28T10:39:46.197Z,745
2022-08-28T10:41:29.886Z,745
2022-08-28T10:43:13.584Z,745
2022-08-28T10:44:57.294Z,745
2022-08-28T10:46:40.990Z,745
2022-08-28T10:48:24.693Z,745
2022-08-28T10:50:08.399Z,744
2022-08-28T10:51:52.090Z,746
2022-08-28T10:53:35.797Z,745
2022-08-28T10:55:19.504Z,745
2022-08-28T10:57:03.198Z,745
2022-08-28T10:58:46.898Z,745
2022-08-28T11:00:30.598Z,745
2022-08-28T11:02:14.301Z,745
2022-08-28T11:03:58.007Z,745
2022-08-28T11:05:41.698Z,746
2022-08-28T11:07:25.405Z,745
2022-08-28T11:09:09.115Z,736
2022-08-28T11:10:52.805Z,746
2022-08-28T11:12:36.512Z,746
2022-08-28T11:14:20.206Z,745
2022-08-28T11:16:03.913Z,746
2022-08-28T11:17:47.616Z,746
2022-08-28T11:19:31.310Z,745
2022-08-28T11:21:15.021Z,745
2022-08-28T11:22:58.715Z,736
2022-08-28T11:24:42.440Z,745
2022-08-28T11:26:26.130Z,745
2022-08-28T11:28:09.837Z,745
2022-08-28T11:29:53.540Z,745
2022-08-28T11:31:37.262Z,745
2022-08-28T11:33:20.931Z,745
2022-08-28T11:35:04.634Z,745
2022-08-28T11:36:48.341Z,745
2022-08-28T11:38:32.029Z,745
2022-08-28T11:40:15.736Z,745
2022-08-28T11:41:59.440Z,745
2022-08-28T11:43:43.143Z,745
2022-08-28T11:45:26.846Z,745
2022-08-28T11:47:10.541Z,745
2022-08-28T11:48:54.240Z,746
2022-08-28T11:50:37.944Z,745
2022-08-28T11:52:21.643Z,745
2022-08-28T11:54:05.350Z,745
2022-08-28T11:55:49.052Z,738
2022-08-28T11:57:32.748Z,746
2022-08-28T11:59:16.459Z,746
2022-08-28T12:01:00.156Z,745
2022-08-28T12:02:43.856Z,746
2022-08-28T12:04:27.560Z,746
2022-08-28T12:06:11.259Z,745
2022-08-28T12:07:54.966Z,746
2022-08-28T12:09:38.667Z,745
2022-08-28T12:11:22.365Z,745
2022-08-28T12:13:06.069Z,745
2022-08-28T12:16:33.479Z,746
2022-08-28T12:18:17.178Z,745
2022-08-28T12:20:00.882Z,745
2022-08-28T12:21:44.583Z,746
2022-08-28T12:23:28.283Z,746
2022-08-28T12:25:11.983Z,746
2022-08-28T12:26:55.689Z,745
2022-08-28T12:28:39.392Z,745
2022-08-28T12:30:23.089Z,745
2022-08-28T12:32:06.796Z,745
2022-08-28T12:33:50.514Z,742
2022-08-28T12:35:34.193Z,746
2022-08-28T12:37:17.901Z,746
2022-08-28T12:39:01.615Z,744
2022-08-28T12:40:45.308Z,746
2022-08-28T12:42:29.014Z,746
2022-08-28T12:44:12.699Z,745
2022-08-28T12:45:56.411Z,745
2022-08-28T12:47:40.117Z,746
2022-08-28T12:49:23.809Z,746
2022-08-28T12:51:07.524Z,745
2022-08-28T12:52:51.231Z,735
2022-08-28T12:54:34.912Z,745
2022-08-28T12:56:18.623Z,745
2022-08-28T12:58:02.321Z,746
2022-08-28T12:59:46.030Z,746
2022-08-28T13:01:29.729Z,746
2022-08-28T13:03:13.426Z,745
2022-08-28T13:04:57.133Z,746
2022-08-28T13:06:40.839Z,745
2022-08-28T13:08:24.534Z,746
2022-08-28T13:10:08.239Z,745
2022-08-28T13:11:51.941Z,737
2022-08-28T13:13:35.643Z,746
2022-08-28T13:15:19.361Z,746
2022-08-28T13:17:03.046Z,745
2022-08-28T13:18:46.758Z,745
2022-08-28T13:20:30.454Z,746
2022-08-28T13:22:14.146Z,746
2022-08-28T13:23:57.857Z,746
2022-08-28T13:25:41.563Z,745
2022-08-28T13:27:25.254Z,746
2022-08-28T13:29:08.961Z,745
2022-08-28T13:30:52.659Z,744
2022-08-28T13:32:36.364Z,746
2022-08-28T13:34:20.071Z,746
2022-08-28T13:36:03.762Z,745
2022-08-28T13:37:47.469Z,745
2022-08-28T13:39:31.179Z,746
2022-08-28T13:41:14.872Z,746
2022-08-28T13:42:58.582Z,747
2022-08-28T13:44:42.282Z,746
2022-08-28T13:46:25.995Z,746
2022-08-28T13:48:09.702Z,746
2022-08-28T13:49:53.390Z,744
2022-08-28T13:51:37.095Z,745
2022-08-28T13:55:04.492Z,745
2022-08-28T13:56:48.197Z,745
2022-08-28T13:58:31.904Z,746
2022-08-28T14:00:15.596Z,746
2022-08-28T14:01:59.300Z,745
2022-08-28T14:03:43.028Z,745
2022-08-28T14:05:26.708Z,747
2022-08-28T14:07:10.411Z,746
2022-08-28T14:08:54.105Z,746
2022-08-28T14:10:37.810Z,746
2022-08-28T14:12:21.519Z,746
2022-08-28T14:14:05.215Z,745
2022-08-28T14:15:48.917Z,745
2022-08-28T14:17:32.624Z,746
2022-08-28T14:19:16.318Z,746
2022-08-28T14:21:00.025Z,745
2022-08-28T14:22:43.746Z,736
2022-08-28T14:24:27.433Z,746
2022-08-28T14:26:11.133Z,746
2022-08-28T14:27:54.834Z,746
2022-08-28T14:29:38.542Z,747
2022-08-28T14:31:22.242Z,746
2022-08-28T14:33:05.940Z,746
2022-08-28T14:34:49.643Z,747
2022-08-28T14:36:33.347Z,746
2022-08-28T14:38:17.041Z,746
2022-08-28T14:40:00.747Z,746
2022-08-28T14:41:44.448Z,743
2022-08-28T14:43:28.151Z,746
2022-08-28T14:45:11.856Z,746
2022-08-28T14:46:55.554Z,746
2022-08-28T14:48:39.254Z,746
2022-08-28T14:50:22.967Z,746
2022-08-28T14:52:06.659Z,746
2022-08-28T14:53:50.361Z,745
2022-08-28T14:55:34.069Z,745
2022-08-28T14:57:17.763Z,746
2022-08-28T14:59:01.490Z,746
2022-08-28T15:00:45.169Z,745
2022-08-28T15:02:28.876Z,747
2022-08-28T15:04:12.571Z,746
2022-08-28T15:05:56.275Z,745
2022-08-28T15:07:39.984Z,746
2022-08-28T15:09:23.684Z,747
2022-08-28T15:11:07.376Z,746
2022-08-28T15:12:51.084Z,745
2022-08-28T15:14:34.799Z,746
2022-08-28T15:16:18.493Z,747
2022-08-28T15:18:02.193Z,747
2022-08-28T15:19:45.903Z,737
2022-08-28T15:21:29.597Z,748
2022-08-28T15:23:13.316Z,747
2022-08-28T15:24:57.005Z,746
2022-08-28T15:26:40.707Z,746
2022-08-28T15:28:24.412Z,746
2022-08-28T15:31:51.814Z,746
2022-08-28T15:33:35.521Z,746
2022-08-28T15:35:19.217Z,747
2022-08-28T15:37:02.921Z,746
2022-08-28T15:38:46.629Z,744
2022-08-28T15:40:30.336Z,746
2022-08-28T15:42:14.030Z,746
2022-08-28T15:43:57.734Z,746
2022-08-28T15:45:41.435Z,746
2022-08-28T15:47:25.134Z,746
2022-08-28T15:49:08.835Z,746
2022-08-28T15:50:52.538Z,746
2022-08-28T15:52:36.242Z,745
2022-08-28T15:54:19.945Z,747
2022-08-28T15:56:03.645Z,746
2022-08-28T15:57:47.344Z,746
2022-08-28T15:59:31.054Z,747
2022-08-28T16:01:14.754Z,747
2022-08-28T16:02:58.451Z,745
2022-08-28T16:04:42.151Z,746
2022-08-28T16:06:25.867Z,746
2022-08-28T16:08:09.551Z,746
2022-08-28T16:09:53.262Z,746
2022-08-28T16:11:36.971Z,746
2022-08-28T16:13:20.674Z,747
2022-08-28T16:15:04.373Z,746
2022-08-28T16:16:48.073Z,746
2022-08-28T16:18:31.773Z,746
2022-08-28T16:20:15.478Z,747
2022-08-28T16:21:59.192Z,746
2022-08-28T16:23:42.884Z,746
2022-08-28T16:25:26.586Z,737
2022-08-28T16:27:10.289Z,747
2022-08-28T16:28:54.055Z,746
2022-08-28T16:30:37.692Z,746
2022-08-28T16:32:21.450Z,746
2022-08-28T16:34:05.104Z,747
2022-08-28T16:35:48.796Z,746
2022-08-28T16:37:32.500Z,746
2022-08-28T16:39:16.212Z,746
2022-08-28T16:40:59.899Z,747
2022-08-28T16:42:43.610Z,746
2022-08-28T16:44:27.321Z,737
2022-08-28T16:46:11.011Z,746
2022-08-28T16:47:54.725Z,745
2022-08-28T16:49:38.415Z,746
2022-08-28T16:51:22.119Z,747
2022-08-28T16:53:05.828Z,747
2022-08-28T16:54:49.525Z,746
2022-08-28T16:56:33.229Z,746
2022-08-28T16:58:16.934Z,747
2022-08-28T17:00:00.634Z,746
2022-08-28T17:01:44.333Z,746
2022-08-28T17:03:28.037Z,737
2022-08-28T17:05:11.738Z,747
2022-08-28T17:06:55.445Z,745
2022-08-28T17:08:39.139Z,747
2022-08-28T17:10:22.843Z,747
2022-08-28T17:12:06.546Z,747
2022-08-28T17:13:50.240Z,746
2022-08-28T17:15:33.946Z,746
2022-08-28T17:17:17.657Z,747
2022-08-28T17:19:01.351Z,746
2022-08-28T17:20:45.055Z,746
2022-08-28T17:22:28.762Z,740
2022-08-28T17:24:12.466Z,747
2022-08-28T17:25:56.197Z,746
2022-08-28T17:27:39.860Z,746
2022-08-28T17:29:23.567Z,746
2022-08-28T17:31:07.275Z,747
2022-08-28T17:32:50.971Z,746
2022-08-28T17:34:34.679Z,746
2022-08-28T17:36:18.380Z,746
2022-08-28T17:38:02.076Z,747
2022-08-28T17:39:45.775Z,746
2022-08-28T17:41:29.484Z,745
2022-08-28T17:43:13.182Z,746
2022-08-28T17:44:56.888Z,746
2022-08-28T17:46:40.588Z,745
2022-08-28T17:48:24.299Z,746
2022-08-28T17:50:08.003Z,526
2022-08-28T17:51:51.689Z,571
2022-08-28T17:53:35.398Z,528
2022-08-28T17:55:19.104Z,441
2022-08-28T17:57:02.828Z,301
2022-08-28T17:58:46.508Z,251
2022-08-28T18:00:30.201Z,222
2022-08-28T18:02:13.906Z,196
2022-08-28T18:03:57.618Z,169
2022-08-28T18:05:41.308Z,146
2022-08-28T18:07:25.012Z,124
2022-08-28T18:09:08.720Z,105
2022-08-28T18:10:52.414Z,88
2022-08-28T18:12:36.120Z,74
2022-08-28T18:14:19.814Z,62
2022-08-28T18:16:03.522Z,52
2022-08-28T18:17:47.231Z,43
2022-08-28T18:19:30.925Z,35
2022-08-28T18:21:14.633Z,26
2022-08-28T18:22:58.331Z,20
2022-08-28T18:24:42.031Z,16
2022-08-28T18:26:25.736Z,12
2022-08-28T18:28:09.447Z,10
2022-08-28T18:29:53.139Z,8
2022-08-28T18:31:36.846Z,6
2022-08-28T18:33:20.542Z,5
2022-08-28T18:35:04.284Z,4
2022-08-28T18:36:47.948Z,2
2022-08-28T18:38:31.651Z,2
2022-08-28T18:40:15.356Z,2
2022-08-28T18:41:59.057Z,2
2022-08-28T18:43:42.743Z,1
2022-08-28T18:45:26.446Z,1
2022-08-28T18:47:10.149Z,2
2022-08-28T18:48:53.860Z,1
2022-08-28T18:50:37.559Z,1
2022-08-28T18:52:21.264Z,1
2022-08-28T18:54:04.958Z,1
2022-08-28T18:55:48.663Z,0
2022-08-28T18:57:32.361Z,1
2022-08-28T18:59:16.062Z,0
2022-08-28T19:00:59.767Z,1
2022-08-28T19:02:43.466Z,1
2022-08-28T19:04:27.166Z,1
2022-08-28T19:06:10.874Z,1
2022-08-28T19:07:54.576Z,0
2022-08-28T19:09:38.276Z,1
2022-08-28T19:11:21.971Z,0
2022-08-28T19:13:05.669Z,0
2022-08-28T19:14:49.382Z,0
2022-08-28T19:16:33.062Z,0
2022-08-28T19:18:16.769Z,1
2022-08-28T19:20:00.476Z,1
2022-08-28T19:21:44.176Z,1
2022-08-28T19:23:27.880Z,0
2022-08-28T19:25:11.581Z,0
2022-08-28T19:26:55.283Z,0
2022-08-28T19:28:38.984Z,1
2022-08-28T19:30:22.680Z,0
2022-08-28T19:32:06.381Z,1
2022-08-28T19:33:50.090Z,0
2022-08-28T19:35:33.790Z,2
2022-08-28T19:37:17.488Z,0
2022-08-28T19:39:01.196Z,0
2022-08-28T19:40:44.896Z,1
2022-08-28T19:42:28.597Z,1
2022-08-28T19:44:12.292Z,1
2022-08-28T19:45:56.000Z,1
2022-08-28T19:47:39.704Z,1
2022-08-28T19:49:23.402Z,1
2022-08-28T19:51:07.121Z,23
2022-08-28T19:52:50.807Z,21
2022-08-28T19:54:34.511Z,22
2022-08-28T19:56:18.221Z,21
2022-08-28T19:58:01.904Z,21
2022-08-28T19:59:45.617Z,21
2022-08-28T20:01:29.321Z,21
2022-08-28T20:03:13.005Z,21
2022-08-28T20:04:56.709Z,22
2022-08-28T20:06:40.414Z,22
2022-08-28T20:08:24.125Z,22
2022-08-28T20:10:07.825Z,22
2022-08-28T20:11:51.524Z,21
2022-08-28T20:13:35.238Z,21
2022-08-28T20:15:18.946Z,21
2022-08-28T20:17:02.642Z,22
2022-08-28T20:18:46.337Z,21
2022-08-28T20:20:30.042Z,22
2022-08-28T20:22:13.753Z,21
2022-08-28T20:23:57.449Z,21
2022-08-28T20:25:41.138Z,21
2022-08-28T20:27:24.845Z,22
2022-08-28T20:29:08.550Z,22
2022-08-28T20:30:52.237Z,22
2022-08-28T20:32:35.946Z,22
2022-08-28T20:34:19.651Z,21
2022-08-28T20:36:03.350Z,22
2022-08-28T20:37:47.053Z,22
2022-08-28T20:39:30.759Z,21
2022-08-28T20:41:14.451Z,21
2022-08-28T20:42:58.155Z,1
2022-08-28T20:44:41.856Z,2
2022-08-28T20:46:25.565Z,0
2022-08-28T20:48:09.272Z,0
2022-08-28T20:49:52.973Z,0
2022-08-28T20:51:36.671Z,1
2022-08-28T20:53:20.379Z,1
2022-08-28T20:55:04.072Z,2
2022-08-28T20:56:47.790Z,1
2022-08-28T20:58:31.487Z,1
2022-08-28T21:00:15.186Z,1
2022-08-28T21:01:58.889Z,1
2022-08-28T21:03:42.604Z,1
2022-08-28T21:05:26.290Z,1
2022-08-28T21:07:09.995Z,1
2022-08-28T21:08:53.688Z,0
2022-08-28T21:10:37.392Z,0
2022-08-28T21:12:21.131Z,2
2022-08-28T21:14:04.789Z,1
2022-08-28T21:15:48.512Z,1
2022-08-28T21:17:32.196Z,2
2022-08-28T21:19:15.901Z,1
2022-08-28T21:20:59.603Z,0
2022-08-28T21:22:43.307Z,0
2022-08-28T21:24:27.006Z,8
2022-08-28T21:26:10.716Z,1
2022-08-28T21:27:54.403Z,1
2022-08-28T21:29:38.116Z,0
2022-08-28T21:31:21.807Z,0
2022-08-28T21:33:05.510Z,1
2022-08-28T21:34:49.224Z,1
2022-08-28T21:36:32.913Z,1
2022-08-28T21:38:16.618Z,1
2022-08-28T21:40:00.322Z,1
2022-08-28T21:41:44.018Z,1
2022-08-28T21:43:27.718Z,1
2022-08-28T21:45:11.420Z,1
2022-08-28T21:46:55.119Z,1
2022-08-28T21:48:38.834Z,0
2022-08-28T21:50:22.521Z,1
2022-08-28T21:52:06.217Z,1
2022-08-28T21:53:49.921Z,1
2022-08-28T21:55:33.630Z,1
2022-08-28T21:57:17.329Z,1
2022-08-28T21:59:01.036Z,0
2022-08-28T22:00:44.731Z,0
2022-08-28T22:02:28.434Z,1
2022-08-28T22:04:12.143Z,1
2022-08-28T22:05:55.830Z,0
2022-08-28T22:07:39.537Z,1
2022-08-28T22:09:23.244Z,1
2022-08-28T22:11:06.936Z,1
2022-08-28T22:12:50.642Z,1
2022-08-28T22:14:34.347Z,1
2022-08-28T22:16:18.045Z,0
2022-08-28T22:18:01.758Z,1
2022-08-28T22:19:45.454Z,1
2022-08-28T22:21:29.154Z,1
2022-08-28T22:23:12.853Z,0
2022-08-28T22:24:56.550Z,1
2022-08-28T22:26:40.255Z,0
2022-08-28T22:28:23.958Z,1
2022-08-28T22:30:07.658Z,1
2022-08-28T22:31:51.362Z,1
2022-08-28T22:33:35.057Z,0
2022-08-28T22:35:18.761Z,0
2022-08-28T22:37:02.465Z,1
2022-08-28T22:38:46.185Z,1
2022-08-28T22:40:29.861Z,1
2022-08-28T22:42:13.569Z,0
2022-08-28T22:43:57.272Z,1
2022-08-28T22:45:40.969Z,1
2022-08-28T22:47:24.673Z,1
2022-08-28T22:49:08.383Z,1
2022-08-28T22:50:52.081Z,0
2022-08-28T22:52:35.770Z,1
2022-08-28T22:54:19.475Z,0
2022-08-28T22:56:03.175Z,2
2022-08-28T22:57:46.872Z,0
2022-08-28T22:59:30.621Z,1
2022-08-28T23:01:14.288Z,1
2022-08-28T23:02:57.984Z,0
2022-08-28T23:04:41.685Z,1
2022-08-28T23:06:25.379Z,1
2022-08-28T23:08:09.087Z,1
2022-08-28T23:09:52.788Z,0
2022-08-28T23:11:36.491Z,1
2022-08-28T23:13:20.189Z,1
2022-08-28T23:15:03.897Z,1
2022-08-28T23:16:47.592Z,1
2022-08-28T23:18:31.301Z,0
2022-08-28T23:20:15.002Z,1
2022-08-28T23:21:58.701Z,1
2022-08-28T23:23:42.409Z,0
2022-08-28T23:25:26.101Z,0
2022-08-28T23:27:09.801Z,0
2022-08-28T23:28:53.504Z,1
2022-08-28T23:30:37.204Z,0
2022-08-28T23:32:20.922Z,1
2022-08-28T23:34:04.621Z,1
2022-08-28T23:35:48.318Z,0
2022-08-28T23:37:32.047Z,1
2022-08-28T23:39:15.728Z,1
2022-08-28T23:40:59.424Z,0
2022-08-28T23:42:43.122Z,1
2022-08-28T23:44:26.850Z,0
2022-08-28T23:46:10.557Z,1
2022-08-28T23:47:54.275Z,1
2022-08-28T23:49:37.967Z,1
2022-08-28T23:51:21.634Z,1
2022-08-28T23:53:05.360Z,1
2022-08-28T23:54:49.043Z,0
2022-08-28T23:56:32.739Z,0
2022-08-28T23:58:16.434Z,0
